createdAt,value
2023-04-28T00:00:15.001Z,99.90
2023-04-28T00:02:41.899Z,99.90
2023-04-28T00:05:09.304Z,99.90
2023-04-28T00:07:36.319Z,99.90
2023-04-28T00:10:03.368Z,99.90
2023-04-28T00:12:30.159Z,99.90
2023-04-28T00:14:56.977Z,99.90
2023-04-28T00:17:23.886Z,99.90
2023-04-28T00:19:50.980Z,99.90
2023-04-28T00:22:18.664Z,99.90
2023-04-28T00:24:45.498Z,99.90
2023-04-28T00:27:12.282Z,99.90
2023-04-28T00:29:39.068Z,99.90
2023-04-28T00:32:06.117Z,99.90
2023-04-28T00:34:33.657Z,99.90
2023-04-28T00:37:00.463Z,99.90
2023-04-28T00:39:27.802Z,99.90
2023-04-28T00:41:55.270Z,99.90
2023-04-28T00:44:22.132Z,99.90
2023-04-28T00:46:49.253Z,99.90
2023-04-28T00:49:16.926Z,99.90
2023-04-28T00:51:43.813Z,99.90
2023-04-28T00:54:14.862Z,99.90
2023-04-28T00:56:43.121Z,99.90
2023-04-28T00:59:09.950Z,99.90
2023-04-28T01:01:37.759Z,99.90
2023-04-28T01:04:05.208Z,99.90
2023-04-28T01:06:33.168Z,99.90
2023-04-28T01:09:01.654Z,99.90
2023-04-28T01:11:28.448Z,99.90
2023-04-28T01:14:07.165Z,99.90
2023-04-28T01:16:38.595Z,99.90
2023-04-28T01:19:22.438Z,99.90
2023-04-28T01:21:51.444Z,99.90
2023-04-28T01:24:22.368Z,99.90
2023-04-28T01:26:50.098Z,99.90
2023-04-28T01:29:16.901Z,99.90
2023-04-28T01:31:43.776Z,99.90
2023-04-28T01:34:10.693Z,99.90
2023-04-28T01:36:37.912Z,99.90
2023-04-28T01:39:05.613Z,99.90
2023-04-28T01:41:35.926Z,99.90
2023-04-28T01:44:05.032Z,99.90
2023-04-28T01:46:32.077Z,99.90
2023-04-28T01:48:59.114Z,99.90
2023-04-28T01:51:27.077Z,99.90
2023-04-28T01:53:54.087Z,99.90
2023-04-28T01:56:21.371Z,99.90
2023-04-28T01:58:49.759Z,99.90
2023-04-28T02:01:17.025Z,99.90
2023-04-28T02:03:44.947Z,99.90
2023-04-28T02:06:11.866Z,99.90
2023-04-28T02:08:38.763Z,99.90
2023-04-28T02:11:05.887Z,99.90
2023-04-28T02:13:32.685Z,99.90
2023-04-28T02:16:02.772Z,99.90
2023-04-28T02:18:29.816Z,99.90
2023-04-28T02:21:08.299Z,99.90
2023-04-28T02:23:35.153Z,99.90
2023-04-28T02:26:05.305Z,99.90
2023-04-28T02:28:32.317Z,99.90
2023-04-28T02:31:09.850Z,99.90
2023-04-28T02:33:38.003Z,99.90
2023-04-28T02:36:06.153Z,99.90
2023-04-28T02:38:33.078Z,99.90
2023-04-28T02:41:01.376Z,99.90
2023-04-28T02:43:28.892Z,99.90
2023-04-28T02:45:55.827Z,99.90
2023-04-28T02:48:23.546Z,99.90
2023-04-28T02:50:51.163Z,99.90
2023-04-28T02:53:18.091Z,99.90
2023-04-28T02:55:45.332Z,99.90
2023-04-28T02:58:12.414Z,99.90
2023-04-28T03:00:39.209Z,99.90
2023-04-28T03:03:06.429Z,99.90
2023-04-28T03:05:33.407Z,99.90
2023-04-28T03:08:00.790Z,99.90
2023-04-28T03:10:28.054Z,99.90
2023-04-28T03:12:54.878Z,99.90
2023-04-28T03:15:21.644Z,99.90
2023-04-28T03:17:48.681Z,99.90
2023-04-28T03:20:15.892Z,99.90
2023-04-28T03:22:42.695Z,99.90
2023-04-28T03:25:10.194Z,99.90
2023-04-28T03:27:45.549Z,99.90
2023-04-28T03:30:12.968Z,99.90
2023-04-28T03:32:40.537Z,99.90
2023-04-28T03:35:08.192Z,99.90
2023-04-28T03:37:35.132Z,99.90
2023-04-28T03:40:02.021Z,99.90
2023-04-28T03:42:32.949Z,99.90
2023-04-28T03:45:11.060Z,99.90
2023-04-28T03:47:38.022Z,99.90
2023-04-28T03:50:05.139Z,99.90
2023-04-28T03:52:32.453Z,99.90
2023-04-28T03:54:59.274Z,99.90
2023-04-28T03:57:26.267Z,99.90
2023-04-28T03:59:53.147Z,99.90
2023-04-28T04:02:20.118Z,99.90
2023-04-28T04:04:47.432Z,99.90
2023-04-28T04:07:14.795Z,99.90
2023-04-28T04:09:41.797Z,99.90
2023-04-28T04:12:09.455Z,99.90
2023-04-28T04:14:37.071Z,99.90
2023-04-28T04:17:04.041Z,99.90
2023-04-28T04:19:31.033Z,99.90
2023-04-28T04:21:58.003Z,99.90
2023-04-28T04:24:25.394Z,99.90
2023-04-28T04:26:52.235Z,99.90
2023-04-28T04:29:32.796Z,99.90
2023-04-28T04:32:02.223Z,99.90
2023-04-28T04:34:29.213Z,99.90
2023-04-28T04:36:56.282Z,99.90
2023-04-28T04:39:23.588Z,99.90
2023-04-28T04:41:50.415Z,99.90
2023-04-28T04:44:39.591Z,99.90
2023-04-28T04:47:11.174Z,99.90
2023-04-28T04:49:38.150Z,99.90
2023-04-28T04:52:06.701Z,99.90
2023-04-28T04:54:33.511Z,99.90
2023-04-28T04:57:00.595Z,99.90
2023-04-28T04:59:46.222Z,99.90
2023-04-28T05:02:17.234Z,99.90
2023-04-28T05:04:44.614Z,99.90
2023-04-28T05:07:14.379Z,99.90
2023-04-28T05:09:41.666Z,99.90
2023-04-28T05:12:08.531Z,99.90
2023-04-28T05:14:35.703Z,99.90
2023-04-28T05:17:03.107Z,99.90
2023-04-28T05:19:37.041Z,99.90
2023-04-28T05:22:04.319Z,99.90
2023-04-28T05:24:32.211Z,99.90
2023-04-28T05:26:59.606Z,99.90
2023-04-28T05:29:26.487Z,99.90
2023-04-28T05:31:53.921Z,99.90
2023-04-28T05:34:22.879Z,99.90
2023-04-28T05:36:50.008Z,99.90
2023-04-28T05:39:18.293Z,99.90
2023-04-28T05:41:45.191Z,99.90
2023-04-28T05:44:12.199Z,99.90
2023-04-28T05:46:39.968Z,99.90
2023-04-28T05:49:07.001Z,99.90
2023-04-28T05:51:37.537Z,99.90
2023-04-28T05:54:04.466Z,99.90
2023-04-28T05:56:36.381Z,99.90
2023-04-28T05:59:04.418Z,99.90
2023-04-28T06:01:32.268Z,99.90
2023-04-28T06:03:59.524Z,99.90
2023-04-28T06:06:27.803Z,99.90
2023-04-28T06:08:54.791Z,99.90
2023-04-28T06:11:22.627Z,99.90
2023-04-28T06:13:50.826Z,99.90
2023-04-28T06:16:18.948Z,99.90
2023-04-28T06:18:48.420Z,99.90
2023-04-28T06:21:17.517Z,99.90
2023-04-28T06:23:44.339Z,99.90
2023-04-28T06:26:11.191Z,99.90
2023-04-28T06:28:39.685Z,99.90
2023-04-28T06:31:08.254Z,99.90
2023-04-28T06:33:35.121Z,99.90
2023-04-28T06:36:02.072Z,99.90
2023-04-28T06:38:28.911Z,99.90
2023-04-28T06:40:55.732Z,99.90
2023-04-28T06:43:22.636Z,99.90
2023-04-28T06:46:09.853Z,99.90
2023-04-28T06:48:37.106Z,99.90
2023-04-28T06:51:05.050Z,99.90
2023-04-28T06:53:34.167Z,99.90
2023-04-28T06:56:02.339Z,99.90
2023-04-28T06:58:29.170Z,99.90
2023-04-28T07:00:56.117Z,99.90
2023-04-28T07:03:23.069Z,99.90
2023-04-28T07:05:50.118Z,99.90
2023-04-28T07:08:17.685Z,99.90
2023-04-28T07:10:44.505Z,99.90
2023-04-28T07:13:11.662Z,99.90
2023-04-28T07:15:39.039Z,99.90
2023-04-28T07:18:06.037Z,99.90
2023-04-28T07:20:32.856Z,99.90
2023-04-28T07:22:59.695Z,99.90
2023-04-28T07:25:27.004Z,99.90
2023-04-28T07:27:54.300Z,99.90
2023-04-28T07:30:28.013Z,99.90
2023-04-28T07:32:55.619Z,99.90
2023-04-28T07:35:22.738Z,99.90
2023-04-28T07:37:49.654Z,99.90
2023-04-28T07:40:16.888Z,99.90
2023-04-28T07:42:43.987Z,99.90
2023-04-28T07:45:11.922Z,99.90
2023-04-28T07:47:39.327Z,99.90
2023-04-28T07:50:07.020Z,99.90
2023-04-28T07:52:34.347Z,99.90
2023-04-28T07:55:02.489Z,99.90
2023-04-28T07:57:30.059Z,99.90
2023-04-28T07:59:56.915Z,99.90
2023-04-28T08:02:23.869Z,99.90
2023-04-28T08:04:50.907Z,99.90
2023-04-28T08:07:17.957Z,99.90
2023-04-28T08:09:47.468Z,99.90
2023-04-28T08:12:15.590Z,99.90
2023-04-28T08:14:42.726Z,99.90
2023-04-28T08:17:09.993Z,99.90
2023-04-28T08:19:36.896Z,99.90
2023-04-28T08:22:07.384Z,99.90
2023-04-28T08:24:34.521Z,99.90
2023-04-28T08:27:03.228Z,99.90
2023-04-28T08:29:31.698Z,99.90
2023-04-28T08:31:59.267Z,99.90
2023-04-28T08:34:26.143Z,99.90
2023-04-28T08:36:54.245Z,99.90
2023-04-28T08:39:23.113Z,99.90
2023-04-28T08:41:50.685Z,99.90
2023-04-28T08:44:18.717Z,99.90
2023-04-28T08:46:47.157Z,99.90
2023-04-28T08:49:18.954Z,99.90
2023-04-28T08:51:50.518Z,99.90
2023-04-28T08:54:26.192Z,99.90
2023-04-28T08:56:55.862Z,99.90
2023-04-28T08:59:22.809Z,99.90
2023-04-28T09:01:50.433Z,99.90
2023-04-28T09:04:18.439Z,99.90
2023-04-28T09:06:46.522Z,99.90
2023-04-28T09:09:20.061Z,99.90
2023-04-28T09:11:53.660Z,99.90
2023-04-28T09:14:20.499Z,99.90
2023-04-28T09:16:47.538Z,99.90
2023-04-28T09:19:16.525Z,99.90
2023-04-28T09:21:54.261Z,99.90
2023-04-28T09:24:43.214Z,99.90
2023-04-28T09:27:12.033Z,99.90
2023-04-28T09:29:39.518Z,99.90
2023-04-28T09:32:20.933Z,99.90
2023-04-28T09:34:50.746Z,99.90
2023-04-28T09:37:20.056Z,99.90
2023-04-28T09:39:51.765Z,99.90
2023-04-28T09:42:34.014Z,99.90
2023-04-28T09:45:15.496Z,99.90
2023-04-28T09:47:48.301Z,99.90
2023-04-28T09:50:17.605Z,99.90
2023-04-28T09:52:56.691Z,99.90
2023-04-28T09:55:25.005Z,99.90
2023-04-28T09:57:54.590Z,99.90
2023-04-28T10:00:22.657Z,99.90
2023-04-28T10:02:51.638Z,99.90
2023-04-28T10:05:19.965Z,99.90
2023-04-28T10:07:47.127Z,99.90
2023-04-28T10:10:14.825Z,99.90
2023-04-28T10:12:42.118Z,99.90
2023-04-28T10:15:10.374Z,99.90
2023-04-28T10:17:38.703Z,99.90
2023-04-28T10:20:06.520Z,99.90
2023-04-28T10:22:59.325Z,99.90
2023-04-28T10:25:27.172Z,99.90
2023-04-28T10:27:54.473Z,99.90
2023-04-28T10:30:28.868Z,99.90
2023-04-28T10:33:09.513Z,99.90
2023-04-28T10:35:40.768Z,99.90
2023-04-28T10:38:08.918Z,99.90
2023-04-28T10:40:46.078Z,99.90
2023-04-28T10:43:14.376Z,99.90
2023-04-28T10:46:02.796Z,99.90
2023-04-28T10:48:29.883Z,99.90
2023-04-28T10:51:06.094Z,99.90
2023-04-28T10:53:45.164Z,99.90
2023-04-28T10:56:26.998Z,99.90
2023-04-28T10:59:00.647Z,99.90
2023-04-28T11:01:34.535Z,99.90
2023-04-28T11:04:07.748Z,99.90
2023-04-28T11:06:40.671Z,99.90
2023-04-28T11:09:33.333Z,99.90
2023-04-28T11:12:00.116Z,99.90
2023-04-28T11:14:35.883Z,99.90
2023-04-28T11:17:03.738Z,99.90
2023-04-28T11:19:35.819Z,99.90
2023-04-28T11:22:11.915Z,99.90
2023-04-28T11:24:39.139Z,99.90
2023-04-28T11:27:06.111Z,99.90
2023-04-28T11:29:41.059Z,99.90
2023-04-28T11:32:10.040Z,99.90
2023-04-28T11:34:37.862Z,99.60
2023-04-28T11:37:07.222Z,99.70
2023-04-28T11:39:35.001Z,99.70
2023-04-28T11:42:09.245Z,98.90
2023-04-28T11:44:36.162Z,98.40
2023-04-28T11:47:04.697Z,98.00
2023-04-28T11:49:45.452Z,99.30
2023-04-28T11:52:13.715Z,99.20
2023-04-28T11:54:43.622Z,99.90
2023-04-28T11:57:21.836Z,99.90
2023-04-28T11:59:49.750Z,99.90
2023-04-28T12:02:24.224Z,99.90
2023-04-28T12:04:52.136Z,99.90
2023-04-28T12:07:19.851Z,99.30
2023-04-28T12:09:48.204Z,98.30
2023-04-28T12:12:40.104Z,98.60
2023-04-28T12:15:12.730Z,97.60
2023-04-28T12:17:41.756Z,96.90
2023-04-28T12:20:10.536Z,97.30
2023-04-28T12:22:51.049Z,96.70
2023-04-28T12:25:19.389Z,96.60
2023-04-28T12:28:08.322Z,96.00
2023-04-28T12:30:39.193Z,94.40
2023-04-28T12:33:06.114Z,96.70
2023-04-28T12:35:33.344Z,95.40
2023-04-28T12:38:00.395Z,95.00
2023-04-28T12:40:27.443Z,94.90
2023-04-28T12:42:54.784Z,94.10
2023-04-28T12:45:21.675Z,93.60
2023-04-28T12:47:48.657Z,91.30
2023-04-28T12:50:15.623Z,93.20
2023-04-28T12:52:42.450Z,93.20
2023-04-28T12:55:09.611Z,92.30
2023-04-28T12:57:39.091Z,92.30
2023-04-28T13:00:08.117Z,91.90
2023-04-28T13:02:35.317Z,91.60
2023-04-28T13:05:03.043Z,90.90
2023-04-28T13:07:30.568Z,91.80
2023-04-28T13:09:58.302Z,90.40
2023-04-28T13:12:25.553Z,91.10
2023-04-28T13:14:52.332Z,90.90
2023-04-28T13:17:19.224Z,91.10
2023-04-28T13:19:46.455Z,92.20
2023-04-28T13:22:13.501Z,92.00
2023-04-28T13:24:40.264Z,91.00
2023-04-28T13:27:09.950Z,90.30
2023-04-28T13:29:37.566Z,90.30
2023-04-28T13:32:05.701Z,89.40
2023-04-28T13:34:33.515Z,89.50
2023-04-28T13:37:00.543Z,90.60
2023-04-28T13:39:27.353Z,89.80
2023-04-28T13:41:54.261Z,90.00
2023-04-28T13:44:21.524Z,90.70
2023-04-28T13:46:48.667Z,90.60
2023-04-28T13:49:15.505Z,90.80
2023-04-28T13:51:42.787Z,88.40
2023-04-28T13:54:11.382Z,89.00
2023-04-28T13:56:38.456Z,88.50
2023-04-28T13:59:05.378Z,90.20
2023-04-28T14:01:32.252Z,89.30
2023-04-28T14:03:59.290Z,90.70
2023-04-28T14:06:27.410Z,91.60
2023-04-28T14:08:54.405Z,92.30
2023-04-28T14:11:21.453Z,91.70
2023-04-28T14:13:48.287Z,92.40
2023-04-28T14:16:15.212Z,92.10
2023-04-28T14:18:42.058Z,91.70
2023-04-28T14:21:08.896Z,91.10
2023-04-28T14:23:35.824Z,91.80
2023-04-28T14:26:02.770Z,92.00
2023-04-28T14:28:29.730Z,91.20
2023-04-28T14:30:56.935Z,91.10
2023-04-28T14:33:24.337Z,90.40
2023-04-28T14:35:51.306Z,92.30
2023-04-28T14:38:18.595Z,92.60
2023-04-28T14:40:45.564Z,91.70
2023-04-28T14:43:14.017Z,91.90
2023-04-28T14:45:41.115Z,92.50
2023-04-28T14:48:10.457Z,92.00
2023-04-28T14:50:37.787Z,92.20
2023-04-28T14:53:07.786Z,91.10
2023-04-28T14:55:35.020Z,89.50
2023-04-28T14:58:01.910Z,84.80
2023-04-28T15:00:29.407Z,83.40
2023-04-28T15:02:56.362Z,83.50
2023-04-28T15:05:23.302Z,83.20
2023-04-28T15:07:50.087Z,85.40
2023-04-28T15:10:17.562Z,86.00
2023-04-28T15:12:44.465Z,86.20
2023-04-28T15:15:11.922Z,86.40
2023-04-28T15:17:39.043Z,85.50
2023-04-28T15:20:07.388Z,83.50
2023-04-28T15:22:34.220Z,83.30
2023-04-28T15:25:01.221Z,84.00
2023-04-28T15:27:28.070Z,84.80
2023-04-28T15:29:54.909Z,84.00
2023-04-28T15:32:23.500Z,84.80
2023-04-28T15:34:50.686Z,83.00
2023-04-28T15:37:52.097Z,82.90
2023-04-28T15:40:20.058Z,81.80
2023-04-28T15:42:52.825Z,83.20
2023-04-28T15:45:21.309Z,80.70
2023-04-28T15:47:50.577Z,80.40
2023-04-28T15:50:19.715Z,79.70
2023-04-28T15:52:48.019Z,80.80
2023-04-28T15:55:16.919Z,80.10
2023-04-28T15:57:44.316Z,80.10
2023-04-28T16:00:11.745Z,80.70
2023-04-28T16:02:39.330Z,81.20
2023-04-28T16:05:06.880Z,81.40
2023-04-28T16:07:41.112Z,80.40
2023-04-28T16:10:10.804Z,80.60
2023-04-28T16:12:38.901Z,81.40
2023-04-28T16:15:07.205Z,80.70
2023-04-28T16:17:34.253Z,81.30
2023-04-28T16:20:01.758Z,80.40
2023-04-28T16:22:28.817Z,80.00
2023-04-28T16:24:56.830Z,79.70
2023-04-28T16:27:23.680Z,78.20
2023-04-28T16:29:51.029Z,79.20
2023-04-28T16:32:18.274Z,78.40
2023-04-28T16:34:45.189Z,79.70
2023-04-28T16:37:12.017Z,79.90
2023-04-28T16:39:38.944Z,80.60
2023-04-28T16:42:06.089Z,79.20
2023-04-28T16:44:33.193Z,78.90
2023-04-28T16:47:00.163Z,79.60
2023-04-28T16:49:26.955Z,78.70
2023-04-28T16:52:06.493Z,78.90
2023-04-28T16:54:33.552Z,77.90
2023-04-28T16:57:02.555Z,78.50
2023-04-28T16:59:29.700Z,78.70
2023-04-28T17:02:01.850Z,78.80
2023-04-28T17:04:28.855Z,78.60
2023-04-28T17:06:56.254Z,78.70
2023-04-28T17:09:23.193Z,78.90
2023-04-28T17:11:50.321Z,78.60
2023-04-28T17:14:17.233Z,78.00
2023-04-28T17:16:44.109Z,78.40
2023-04-28T17:19:11.670Z,79.20
2023-04-28T17:21:38.888Z,79.40
2023-04-28T17:24:06.108Z,79.00
2023-04-28T17:26:33.135Z,78.50
2023-04-28T17:29:00.169Z,77.60
2023-04-28T17:31:28.654Z,77.50
2023-04-28T17:33:57.700Z,78.30
2023-04-28T17:36:27.166Z,78.90
2023-04-28T17:38:54.462Z,79.10
2023-04-28T17:41:22.563Z,79.60
2023-04-28T17:43:51.516Z,80.50
2023-04-28T17:46:18.652Z,79.90
2023-04-28T17:48:45.677Z,81.00
2023-04-28T17:51:12.662Z,81.50
2023-04-28T17:53:39.687Z,81.30
2023-04-28T17:56:06.825Z,81.60
2023-04-28T17:58:33.743Z,83.10
2023-04-28T18:01:02.191Z,83.50
2023-04-28T18:03:29.470Z,83.60
2023-04-28T18:05:56.474Z,84.10
2023-04-28T18:08:23.291Z,84.50
2023-04-28T18:10:50.721Z,84.90
2023-04-28T18:13:17.580Z,86.00
2023-04-28T18:15:46.225Z,86.40
2023-04-28T18:18:13.455Z,86.40
2023-04-28T18:20:42.281Z,87.30
2023-04-28T18:23:09.790Z,87.60
2023-04-28T18:25:37.186Z,88.00
2023-04-28T18:28:04.229Z,87.50
2023-04-28T18:30:39.767Z,88.20
2023-04-28T18:33:08.422Z,88.70
2023-04-28T18:35:38.256Z,89.50
2023-04-28T18:38:06.047Z,89.80
2023-04-28T18:40:34.146Z,90.10
2023-04-28T18:43:02.237Z,90.40
2023-04-28T18:45:36.253Z,90.60
2023-04-28T18:48:03.931Z,91.10
2023-04-28T18:50:32.064Z,91.30
2023-04-28T18:53:02.239Z,91.40
2023-04-28T18:55:29.136Z,91.80
2023-04-28T18:57:55.999Z,92.10
2023-04-28T19:00:23.174Z,92.70
2023-04-28T19:02:50.330Z,92.50
2023-04-28T19:05:17.348Z,92.70
2023-04-28T19:07:44.254Z,93.20
2023-04-28T19:10:12.773Z,93.50
2023-04-28T19:12:39.626Z,93.70
2023-04-28T19:15:06.838Z,94.10
2023-04-28T19:17:33.715Z,94.20
2023-04-28T19:20:00.654Z,94.40
2023-04-28T19:22:37.091Z,94.60
2023-04-28T19:25:05.349Z,94.90
2023-04-28T19:27:43.079Z,95.20
2023-04-28T19:30:12.644Z,95.50
2023-04-28T19:32:41.324Z,95.90
2023-04-28T19:35:08.658Z,95.90
2023-04-28T19:37:35.779Z,96.20
2023-04-28T19:40:07.251Z,96.20
2023-04-28T19:42:37.319Z,96.50
2023-04-28T19:45:04.618Z,96.80
2023-04-28T19:47:34.723Z,97.00
2023-04-28T19:50:02.085Z,96.90
2023-04-28T19:52:29.041Z,97.30
2023-04-28T19:54:56.095Z,97.40
2023-04-28T19:57:23.599Z,97.70
2023-04-28T19:59:50.696Z,97.70
2023-04-28T20:02:18.936Z,97.70
2023-04-28T20:04:46.903Z,97.90
2023-04-28T20:07:14.257Z,98.20
2023-04-28T20:09:41.100Z,98.30
2023-04-28T20:12:09.083Z,98.60
2023-04-28T20:14:37.191Z,98.80
2023-04-28T20:17:05.093Z,99.20
2023-04-28T20:19:32.170Z,99.90
2023-04-28T20:21:58.988Z,99.90
2023-04-28T20:24:25.951Z,99.90
2023-04-28T20:26:54.525Z,99.90
2023-04-28T20:29:21.795Z,99.90
2023-04-28T20:31:48.748Z,99.90
2023-04-28T20:34:15.763Z,99.90
2023-04-28T20:36:43.177Z,99.90
2023-04-28T20:39:11.777Z,99.90
2023-04-28T20:41:40.984Z,99.90
2023-04-28T20:44:08.480Z,99.90
2023-04-28T20:46:35.728Z,99.90
2023-04-28T20:49:04.546Z,99.90
2023-04-28T20:51:34.209Z,99.90
2023-04-28T20:54:01.669Z,99.90
2023-04-28T20:56:28.631Z,99.90
2023-04-28T20:58:55.862Z,99.90
2023-04-28T21:01:23.096Z,99.90
2023-04-28T21:03:50.208Z,99.90
2023-04-28T21:06:17.789Z,99.90
2023-04-28T21:08:45.169Z,99.90
2023-04-28T21:11:13.347Z,99.90
2023-04-28T21:13:40.620Z,99.90
2023-04-28T21:16:17.644Z,99.90
2023-04-28T21:18:47.442Z,99.90
2023-04-28T21:21:14.426Z,99.90
2023-04-28T21:23:41.221Z,99.90
2023-04-28T21:26:08.257Z,99.90
2023-04-28T21:28:36.179Z,99.90
2023-04-28T21:31:04.112Z,99.90
2023-04-28T21:33:31.897Z,99.90
2023-04-28T21:36:03.420Z,99.90
2023-04-28T21:38:30.289Z,99.90
2023-04-28T21:40:57.048Z,99.90
2023-04-28T21:43:24.167Z,99.90
2023-04-28T21:45:52.187Z,99.90
2023-04-28T21:48:19.135Z,99.90
2023-04-28T21:50:47.288Z,99.90
2023-04-28T21:53:14.187Z,99.90
2023-04-28T21:55:41.557Z,99.90
2023-04-28T21:58:08.418Z,99.90
2023-04-28T22:00:39.852Z,99.90
2023-04-28T22:03:07.031Z,99.90
2023-04-28T22:05:34.716Z,99.90
2023-04-28T22:08:01.885Z,99.90
2023-04-28T22:10:29.171Z,99.90
2023-04-28T22:12:56.233Z,99.90
2023-04-28T22:15:23.015Z,99.90
2023-04-28T22:17:50.083Z,99.90
2023-04-28T22:20:17.048Z,99.90
2023-04-28T22:22:43.801Z,99.90
2023-04-28T22:25:10.678Z,99.90
2023-04-28T22:27:37.475Z,99.90
2023-04-28T22:30:04.951Z,99.90
2023-04-28T22:32:32.011Z,99.90
2023-04-28T22:34:58.819Z,99.90
2023-04-28T22:37:25.690Z,99.90
2023-04-28T22:39:52.722Z,99.90
2023-04-28T22:42:19.791Z,99.90
2023-04-28T22:44:47.172Z,99.90
2023-04-28T22:47:14.014Z,99.90
2023-04-28T22:49:40.816Z,99.90
2023-04-28T22:52:07.632Z,99.90
2023-04-28T22:54:34.463Z,99.90
2023-04-28T22:57:03.808Z,99.90
2023-04-28T22:59:30.653Z,99.90
2023-04-28T23:01:57.567Z,99.90
2023-04-28T23:04:24.537Z,99.90
2023-04-28T23:06:52.873Z,99.90
2023-04-28T23:09:20.302Z,99.90
2023-04-28T23:11:47.066Z,99.90
2023-04-28T23:14:13.956Z,99.90
2023-04-28T23:16:40.996Z,99.90
2023-04-28T23:19:08.735Z,99.90
2023-04-28T23:21:35.594Z,99.90
2023-04-28T23:24:02.505Z,99.90
2023-04-28T23:26:29.389Z,99.90
2023-04-28T23:28:56.206Z,99.90
2023-04-28T23:31:23.057Z,99.90
2023-04-28T23:33:49.850Z,99.90
2023-04-28T23:36:16.669Z,99.90
2023-04-28T23:38:43.469Z,99.90
2023-04-28T23:41:10.418Z,99.90
2023-04-28T23:43:37.276Z,99.90
2023-04-28T23:46:04.687Z,99.90
2023-04-28T23:48:31.642Z,99.90
2023-04-28T23:50:58.781Z,99.90
2023-04-28T23:53:25.720Z,99.90
2023-04-28T23:55:52.532Z,99.90
2023-04-28T23:58:19.338Z,99.90
